createdAt,value
2018-12-20T00:00:47.415Z,87.47
2018-12-20T00:03:16.887Z,83.78
2018-12-20T00:05:46.336Z,81.99
2018-12-20T00:08:15.461Z,81.48
2018-12-20T00:10:45.012Z,83.24
2018-12-20T00:13:14.337Z,82.94
2018-12-20T00:15:43.707Z,81.84
2018-12-20T00:18:13.226Z,79.91
2018-12-20T00:20:42.508Z,79.35
2018-12-20T00:23:12.031Z,86.15
2018-12-20T00:25:41.297Z,92.22
2018-12-20T00:28:10.733Z,91.58
2018-12-20T00:30:40.234Z,94.64
2018-12-20T00:33:09.693Z,96.68
2018-12-20T00:35:39.043Z,98.05
2018-12-20T00:38:08.374Z,96.81
2018-12-20T00:40:37.843Z,94.61
2018-12-20T00:43:07.190Z,94.05
2018-12-20T00:45:36.440Z,95.21
2018-12-20T00:48:05.679Z,96.47
2018-12-20T00:50:35.089Z,98.07
2018-12-20T00:53:04.530Z,97.37
2018-12-20T00:55:33.921Z,95.16
2018-12-20T00:58:03.157Z,91.07
2018-12-20T01:00:32.423Z,90.29
2018-12-20T01:03:01.684Z,89.58
2018-12-20T01:05:31.006Z,88.87
2018-12-20T01:08:00.493Z,87.28
2018-12-20T01:10:30.005Z,85.17
2018-12-20T01:12:59.392Z,83.38
2018-12-20T01:15:28.523Z,80.52
2018-12-20T01:17:57.750Z,78.92
2018-12-20T01:20:27.296Z,77.79
2018-12-20T01:22:56.614Z,76.37
2018-12-20T01:25:25.704Z,76.75
2018-12-20T01:27:55.123Z,76.10
2018-12-20T01:30:24.382Z,76.98
2018-12-20T01:32:53.700Z,75.98
2018-12-20T01:35:23.379Z,76.09
2018-12-20T01:37:52.676Z,75.67
2018-12-20T01:40:22.135Z,75.01
2018-12-20T01:42:51.475Z,75.21
2018-12-20T01:45:21.043Z,75.18
2018-12-20T01:47:50.363Z,75.01
2018-12-20T01:50:19.671Z,74.66
2018-12-20T01:52:49.176Z,75.06
2018-12-20T01:55:18.908Z,75.80
2018-12-20T01:57:48.208Z,75.94
2018-12-20T02:00:17.537Z,78.94
2018-12-20T02:02:46.905Z,79.79
2018-12-20T02:05:16.547Z,78.96
2018-12-20T02:07:45.764Z,78.67
2018-12-20T02:10:15.186Z,78.06
2018-12-20T02:12:44.652Z,76.46
2018-12-20T02:15:14.058Z,76.50
2018-12-20T02:17:43.272Z,78.52
2018-12-20T02:20:12.947Z,77.48
2018-12-20T02:22:42.338Z,78.13
2018-12-20T02:25:11.648Z,77.87
2018-12-20T02:27:41.027Z,76.43
2018-12-20T02:30:11.828Z,79.09
2018-12-20T02:32:41.071Z,78.90
2018-12-20T02:35:10.679Z,78.15
2018-12-20T02:37:39.797Z,76.77
2018-12-20T02:40:09.136Z,78.11
2018-12-20T02:42:38.788Z,80.19
2018-12-20T02:45:10.935Z,79.62
2018-12-20T02:47:39.503Z,78.94
2018-12-20T02:50:09.206Z,81.34
2018-12-20T02:52:38.532Z,82.14
2018-12-20T02:55:08.266Z,83.50
2018-12-20T02:57:37.897Z,83.32
2018-12-20T03:00:07.668Z,85.27
2018-12-20T03:02:37.083Z,88.47
2018-12-20T03:05:07.136Z,88.16
2018-12-20T03:07:36.844Z,87.19
2018-12-20T03:10:06.305Z,83.99
2018-12-20T03:12:35.635Z,82.34
2018-12-20T03:15:04.943Z,81.82
2018-12-20T03:17:34.478Z,81.40
2018-12-20T03:20:03.970Z,80.26
2018-12-20T03:22:33.527Z,78.00
2018-12-20T03:25:02.813Z,77.16
2018-12-20T03:27:32.146Z,77.27
2018-12-20T03:30:01.565Z,78.00
2018-12-20T03:32:30.850Z,77.53
2018-12-20T03:34:59.990Z,78.83
2018-12-20T03:37:29.391Z,78.45
2018-12-20T03:39:58.939Z,77.64
2018-12-20T03:42:28.686Z,75.82
2018-12-20T03:44:58.056Z,76.38
2018-12-20T03:47:27.471Z,76.61
2018-12-20T03:49:56.704Z,76.63
2018-12-20T03:52:26.018Z,77.20
2018-12-20T03:54:55.640Z,76.22
2018-12-20T03:57:25.150Z,77.32
2018-12-20T03:59:54.534Z,78.10
2018-12-20T04:02:25.442Z,78.74
2018-12-20T04:04:54.792Z,77.48
2018-12-20T04:07:24.043Z,77.04
2018-12-20T04:09:53.405Z,79.29
2018-12-20T04:12:22.832Z,85.36
2018-12-20T04:14:52.022Z,85.10
2018-12-20T04:17:21.697Z,86.46
2018-12-20T04:19:50.825Z,89.10
2018-12-20T04:22:20.117Z,91.50
2018-12-20T04:24:49.607Z,90.62
2018-12-20T04:27:18.797Z,89.04
2018-12-20T04:29:48.104Z,87.71
2018-12-20T04:32:17.431Z,88.81
2018-12-20T04:34:46.996Z,88.03
2018-12-20T04:37:16.655Z,87.89
2018-12-20T04:39:46.092Z,87.27
2018-12-20T04:42:15.420Z,87.42
2018-12-20T04:44:45.152Z,87.62
2018-12-20T04:47:14.662Z,87.17
2018-12-20T04:49:44.194Z,84.71
2018-12-20T04:52:13.613Z,82.17
2018-12-20T04:54:43.205Z,85.00
2018-12-20T04:57:12.393Z,87.68
2018-12-20T04:59:41.913Z,87.84
2018-12-20T05:02:11.566Z,86.12
2018-12-20T05:04:41.136Z,82.62
2018-12-20T05:07:10.598Z,81.26
2018-12-20T05:09:40.086Z,83.28
2018-12-20T05:12:09.583Z,83.09
2018-12-20T05:14:39.302Z,82.18
2018-12-20T05:17:08.717Z,79.00
2018-12-20T05:19:38.210Z,80.01
2018-12-20T05:22:07.526Z,78.02
2018-12-20T05:24:37.423Z,78.29
2018-12-20T05:27:06.905Z,79.10
2018-12-20T05:29:36.460Z,79.30
2018-12-20T05:32:05.746Z,78.51
2018-12-20T05:34:35.271Z,77.56
2018-12-20T05:37:04.651Z,78.53
2018-12-20T05:39:34.178Z,80.29
2018-12-20T05:42:03.581Z,80.03
2018-12-20T05:44:33.205Z,79.70
2018-12-20T05:47:02.940Z,78.64
2018-12-20T05:49:32.603Z,77.16
2018-12-20T05:52:02.207Z,78.29
2018-12-20T05:54:31.847Z,82.83
2018-12-20T05:57:01.475Z,82.04
2018-12-20T05:59:31.393Z,80.57
2018-12-20T06:02:01.093Z,81.46
2018-12-20T06:04:30.984Z,81.71
2018-12-20T06:07:00.238Z,80.71
2018-12-20T06:09:30.087Z,80.42
2018-12-20T06:11:59.708Z,80.17
2018-12-20T06:14:29.512Z,79.50
2018-12-20T06:16:59.022Z,79.05
2018-12-20T06:19:28.666Z,77.63
2018-12-20T06:21:58.344Z,78.19
2018-12-20T06:24:27.695Z,78.77
2018-12-20T06:26:57.084Z,80.23
2018-12-20T06:29:26.188Z,85.68
2018-12-20T06:31:55.461Z,88.10
2018-12-20T06:34:24.843Z,89.86
2018-12-20T06:36:54.737Z,89.96
2018-12-20T06:39:24.536Z,88.11
2018-12-20T06:41:54.367Z,83.78
2018-12-20T06:44:24.183Z,81.96
2018-12-20T06:46:54.184Z,80.85
2018-12-20T06:49:23.799Z,80.52
2018-12-20T06:51:53.307Z,81.62
2018-12-20T06:54:23.354Z,80.38
2018-12-20T06:56:52.906Z,81.77
2018-12-20T06:59:22.691Z,83.42
2018-12-20T07:01:52.264Z,85.24
2018-12-20T07:04:21.707Z,84.96
2018-12-20T07:06:51.067Z,84.87
2018-12-20T07:09:20.628Z,85.25
2018-12-20T07:11:49.756Z,85.09
2018-12-20T07:14:19.183Z,84.85
2018-12-20T07:16:48.500Z,83.17
2018-12-20T07:19:17.691Z,82.05
2018-12-20T07:21:47.158Z,81.70
2018-12-20T07:24:16.718Z,82.06
2018-12-20T07:26:46.046Z,82.24
2018-12-20T07:29:15.480Z,80.46
2018-12-20T07:31:45.176Z,78.55
2018-12-20T07:34:16.230Z,78.19
2018-12-20T07:36:45.763Z,76.94
2018-12-20T07:39:15.091Z,77.42
2018-12-20T07:41:44.644Z,76.96
2018-12-20T07:44:20.862Z,76.61
2018-12-20T07:46:50.099Z,77.46
2018-12-20T07:49:20.092Z,77.21
2018-12-20T07:51:50.040Z,77.60
2018-12-20T07:54:19.650Z,80.61
2018-12-20T07:56:48.955Z,87.68
2018-12-20T07:59:23.454Z,88.34
2018-12-20T08:01:49.996Z,89.63
2018-12-20T08:04:19.395Z,88.18
2018-12-20T08:06:48.680Z,85.59
2018-12-20T08:09:18.213Z,84.88
2018-12-20T08:11:47.683Z,84.07
2018-12-20T08:14:16.934Z,82.24
2018-12-20T08:16:46.435Z,81.36
2018-12-20T08:19:15.875Z,80.91
2018-12-20T08:21:45.431Z,80.45
2018-12-20T08:24:14.657Z,79.09
2018-12-20T08:26:43.916Z,77.21
2018-12-20T08:29:13.789Z,78.19
2018-12-20T08:31:44.433Z,79.38
2018-12-20T08:34:14.848Z,83.82
2018-12-20T08:36:44.544Z,81.89
2018-12-20T08:39:14.435Z,80.96
2018-12-20T08:41:44.641Z,79.96
2018-12-20T08:44:13.763Z,79.57
2018-12-20T08:46:54.116Z,79.07
2018-12-20T08:49:18.314Z,78.25
2018-12-20T08:51:49.204Z,77.00
2018-12-20T08:54:18.836Z,78.60
2018-12-20T08:56:48.073Z,79.61
2018-12-20T08:59:17.424Z,78.75
2018-12-20T09:01:46.805Z,78.68
2018-12-20T09:04:16.313Z,77.63
2018-12-20T09:06:45.443Z,76.67
2018-12-20T09:09:14.799Z,76.70
2018-12-20T09:11:44.042Z,80.43
2018-12-20T09:14:13.347Z,81.34
2018-12-20T09:16:42.686Z,79.90
2018-12-20T09:19:12.063Z,79.51
2018-12-20T09:21:41.550Z,81.68
2018-12-20T09:24:11.008Z,83.20
2018-12-20T09:26:40.352Z,80.52
2018-12-20T09:29:09.735Z,78.77
2018-12-20T09:31:39.103Z,77.34
2018-12-20T09:34:08.368Z,77.01
2018-12-20T09:36:37.760Z,77.03
2018-12-20T09:39:09.128Z,77.65
2018-12-20T09:41:38.508Z,77.63
2018-12-20T09:44:07.993Z,77.64
2018-12-20T09:46:37.442Z,77.35
2018-12-20T09:49:07.171Z,77.13
2018-12-20T09:51:36.524Z,77.15
2018-12-20T09:54:05.719Z,77.10
2018-12-20T09:56:35.269Z,76.28
2018-12-20T09:59:04.507Z,76.74
2018-12-20T10:01:34.171Z,76.29
2018-12-20T10:04:03.544Z,75.08
2018-12-20T10:06:33.006Z,79.14
2018-12-20T10:09:02.203Z,80.18
2018-12-20T10:11:31.565Z,79.24
2018-12-20T10:14:01.107Z,83.21
2018-12-20T10:16:30.717Z,84.18
2018-12-20T10:18:59.901Z,83.03
2018-12-20T10:21:29.476Z,80.51
2018-12-20T10:23:58.703Z,77.89
2018-12-20T10:26:28.050Z,76.77
2018-12-20T10:28:57.376Z,77.22
2018-12-20T10:31:26.796Z,76.87
2018-12-20T10:33:56.051Z,77.04
2018-12-20T10:36:25.297Z,77.00
2018-12-20T10:38:54.574Z,80.55
2018-12-20T10:41:24.014Z,81.19
2018-12-20T10:43:53.467Z,79.16
2018-12-20T10:46:22.920Z,79.77
2018-12-20T10:48:52.256Z,80.37
2018-12-20T10:51:21.700Z,78.91
2018-12-20T10:53:50.916Z,78.01
2018-12-20T10:56:20.438Z,78.18
2018-12-20T10:58:49.864Z,75.32
2018-12-20T11:01:24.247Z,74.73
2018-12-20T11:03:57.420Z,75.48
2018-12-20T11:06:32.024Z,75.03
2018-12-20T11:09:06.289Z,74.06
2018-12-20T11:11:40.982Z,75.51
2018-12-20T11:14:10.328Z,76.37
2018-12-20T11:16:39.613Z,75.60
2018-12-20T11:19:08.779Z,74.06
2018-12-20T11:21:38.072Z,73.83
2018-12-20T11:24:08.439Z,73.84
2018-12-20T11:26:37.784Z,75.96
2018-12-20T11:29:07.016Z,76.18
2018-12-20T11:31:36.340Z,76.80
2018-12-20T11:34:05.655Z,76.27
2018-12-20T11:36:34.934Z,75.97
2018-12-20T11:39:08.454Z,75.55
2018-12-20T11:41:36.900Z,75.24
2018-12-20T11:44:06.756Z,75.08
2018-12-20T11:46:36.425Z,74.53
2018-12-20T11:49:05.630Z,74.29
2018-12-20T11:51:35.004Z,73.84
2018-12-20T11:54:04.384Z,74.74
2018-12-20T11:56:33.717Z,73.89
2018-12-20T11:59:03.113Z,75.07
2018-12-20T12:01:32.564Z,73.40
2018-12-20T12:04:01.920Z,71.06
2018-12-20T12:06:31.234Z,69.79
2018-12-20T12:09:00.570Z,64.98
2018-12-20T12:11:30.207Z,66.14
2018-12-20T12:13:59.740Z,64.21
2018-12-20T12:16:29.143Z,64.74
2018-12-20T12:18:58.612Z,66.67
2018-12-20T12:21:28.040Z,66.25
2018-12-20T12:23:58.059Z,65.63
2018-12-20T12:26:27.371Z,65.04
2018-12-20T12:28:56.778Z,66.97
2018-12-20T12:31:26.460Z,66.93
2018-12-20T12:33:55.925Z,67.14
2018-12-20T12:36:25.358Z,67.69
2018-12-20T12:38:54.980Z,68.85
2018-12-20T12:41:24.181Z,69.67
2018-12-20T12:43:53.833Z,68.03
2018-12-20T12:46:23.171Z,67.14
2018-12-20T12:48:52.640Z,69.59
2018-12-20T12:51:22.086Z,70.57
2018-12-20T12:53:51.664Z,72.02
2018-12-20T12:56:20.914Z,71.46
2018-12-20T12:58:53.085Z,71.16
2018-12-20T13:01:22.354Z,72.02
2018-12-20T13:03:51.695Z,70.31
2018-12-20T13:06:21.478Z,68.58
2018-12-20T13:08:50.747Z,68.30
2018-12-20T13:11:19.980Z,64.30
2018-12-20T13:13:49.231Z,60.61
2018-12-20T13:16:18.602Z,63.35
2018-12-20T13:18:48.116Z,65.27
2018-12-20T13:21:17.349Z,66.00
2018-12-20T13:23:46.741Z,66.21
2018-12-20T13:26:16.261Z,67.27
2018-12-20T13:28:45.635Z,67.08
2018-12-20T13:31:14.904Z,68.32
2018-12-20T13:33:44.513Z,68.49
2018-12-20T13:36:14.132Z,68.85
2018-12-20T13:38:43.423Z,69.40
2018-12-20T13:41:12.805Z,70.28
2018-12-20T13:43:42.140Z,70.11
2018-12-20T13:46:11.688Z,69.45
2018-12-20T13:48:40.917Z,70.84
2018-12-20T13:51:10.357Z,70.58
2018-12-20T13:53:39.917Z,70.90
2018-12-20T13:56:09.552Z,67.76
2018-12-20T13:58:38.892Z,65.54
2018-12-20T14:01:08.286Z,64.99
2018-12-20T14:03:37.547Z,65.89
2018-12-20T14:06:07.133Z,68.92
2018-12-20T14:08:36.445Z,71.08
2018-12-20T14:11:05.731Z,72.40
2018-12-20T14:13:34.973Z,73.42
2018-12-20T14:16:05.417Z,74.54
2018-12-20T14:18:35.356Z,74.77
2018-12-20T14:21:04.814Z,74.27
2018-12-20T14:23:34.341Z,74.43
2018-12-20T14:26:03.858Z,73.84
2018-12-20T14:28:33.088Z,73.62
2018-12-20T14:31:02.337Z,74.73
2018-12-20T14:33:32.814Z,74.89
2018-12-20T14:36:02.411Z,75.36
2018-12-20T14:38:31.606Z,74.63
2018-12-20T14:41:01.175Z,72.71
2018-12-20T14:43:30.500Z,70.66
2018-12-20T14:45:59.775Z,68.63
2018-12-20T14:48:39.057Z,69.55
2018-12-20T14:51:02.211Z,70.71
2018-12-20T14:53:31.438Z,70.88
2018-12-20T14:56:00.700Z,69.24
2018-12-20T14:58:30.187Z,70.29
2018-12-20T15:00:59.448Z,71.14
2018-12-20T15:03:28.806Z,69.67
2018-12-20T15:05:59.143Z,70.06
2018-12-20T15:08:28.660Z,72.00
2018-12-20T15:10:58.007Z,71.23
2018-12-20T15:13:28.178Z,70.58
2018-12-20T15:15:57.371Z,70.45
2018-12-20T15:18:26.751Z,70.41
2018-12-20T15:20:55.908Z,70.37
2018-12-20T15:23:25.495Z,69.86
2018-12-20T15:25:54.938Z,69.87
2018-12-20T15:28:24.890Z,69.30
2018-12-20T15:30:54.128Z,68.95
2018-12-20T15:33:23.431Z,69.37
2018-12-20T15:35:53.125Z,69.40
2018-12-20T15:38:23.440Z,69.13
2018-12-20T15:40:53.464Z,69.35
2018-12-20T15:43:22.829Z,69.29
2018-12-20T15:45:54.130Z,69.09
2018-12-20T15:48:23.724Z,68.99
2018-12-20T15:50:53.262Z,68.95
2018-12-20T15:53:22.869Z,69.19
2018-12-20T15:55:52.889Z,69.46
2018-12-20T15:58:22.908Z,69.85
2018-12-20T16:00:53.099Z,70.42
2018-12-20T16:03:23.060Z,70.92
2018-12-20T16:05:53.604Z,70.77
2018-12-20T16:08:23.185Z,71.33
2018-12-20T16:10:53.697Z,71.32
2018-12-20T16:13:23.443Z,70.92
2018-12-20T16:15:53.608Z,70.74
2018-12-20T16:18:23.548Z,70.72
2018-12-20T16:20:52.964Z,70.68
2018-12-20T16:23:22.198Z,70.53
2018-12-20T16:25:51.840Z,70.29
2018-12-20T16:28:21.179Z,70.26
2018-12-20T16:30:50.428Z,69.80
2018-12-20T16:33:20.564Z,69.92
2018-12-20T16:35:50.674Z,69.22
2018-12-20T16:38:20.416Z,69.10
2018-12-20T16:40:49.792Z,69.60
2018-12-20T16:43:20.092Z,69.38
2018-12-20T16:45:51.689Z,69.30
2018-12-20T16:48:25.079Z,68.95
2018-12-20T16:50:54.640Z,68.91
2018-12-20T16:53:24.199Z,68.49
2018-12-20T16:55:53.819Z,68.02
2018-12-20T16:58:23.379Z,68.51
2018-12-20T17:00:52.894Z,68.27
2018-12-20T17:03:22.242Z,67.82
2018-12-20T17:05:51.722Z,68.33
2018-12-20T17:08:20.918Z,69.12
2018-12-20T17:10:50.154Z,69.10
2018-12-20T17:13:19.397Z,68.65
2018-12-20T17:15:48.951Z,68.59
2018-12-20T17:18:18.116Z,68.67
2018-12-20T17:20:47.642Z,68.93
2018-12-20T17:23:19.114Z,68.91
2018-12-20T17:25:48.500Z,69.04
2018-12-20T17:28:17.699Z,70.02
2018-12-20T17:30:47.192Z,70.06
2018-12-20T17:33:16.388Z,69.74
2018-12-20T17:35:45.907Z,69.63
2018-12-20T17:38:15.191Z,69.53
2018-12-20T17:40:44.524Z,69.24
2018-12-20T17:43:13.916Z,68.91
2018-12-20T17:45:43.269Z,68.09
2018-12-20T17:48:12.817Z,68.51
2018-12-20T17:50:42.360Z,68.67
2018-12-20T17:53:11.795Z,68.70
2018-12-20T17:55:44.955Z,68.62
2018-12-20T17:58:13.398Z,68.43
2018-12-20T18:00:42.883Z,68.23
2018-12-20T18:03:12.165Z,67.90
2018-12-20T18:05:41.525Z,68.38
2018-12-20T18:08:10.853Z,68.58
2018-12-20T18:10:40.385Z,68.43
2018-12-20T18:13:09.687Z,68.51
2018-12-20T18:15:39.020Z,68.63
2018-12-20T18:18:08.403Z,69.02
2018-12-20T18:20:37.869Z,69.22
2018-12-20T18:23:07.063Z,69.47
2018-12-20T18:25:36.396Z,69.27
2018-12-20T18:28:05.619Z,68.93
2018-12-20T18:30:34.960Z,68.70
2018-12-20T18:33:04.231Z,68.63
2018-12-20T18:35:33.540Z,68.35
2018-12-20T18:38:02.931Z,68.55
2018-12-20T18:40:32.313Z,68.40
2018-12-20T18:43:01.899Z,68.37
2018-12-20T18:45:31.373Z,68.31
2018-12-20T18:48:00.875Z,68.33
2018-12-20T18:50:30.320Z,68.06
2018-12-20T18:52:59.871Z,68.17
2018-12-20T18:55:29.123Z,68.10
2018-12-20T18:57:58.632Z,67.81
2018-12-20T19:00:27.908Z,67.49
2018-12-20T19:02:57.309Z,67.30
2018-12-20T19:05:26.713Z,67.67
2018-12-20T19:07:56.285Z,67.86
2018-12-20T19:10:25.668Z,67.92
2018-12-20T19:12:55.289Z,68.50
2018-12-20T19:15:24.593Z,68.65
2018-12-20T19:17:54.411Z,68.53
2018-12-20T19:20:23.790Z,68.29
2018-12-20T19:22:53.201Z,69.30
2018-12-20T19:25:22.816Z,69.52
2018-12-20T19:27:52.206Z,69.95
2018-12-20T19:30:21.651Z,69.37
2018-12-20T19:32:51.540Z,71.32
2018-12-20T19:35:20.979Z,71.22
2018-12-20T19:37:50.251Z,71.22
2018-12-20T19:40:19.690Z,72.21
2018-12-20T19:42:49.103Z,73.73
2018-12-20T19:45:18.311Z,75.61
2018-12-20T19:47:47.516Z,75.25
2018-12-20T19:50:16.810Z,75.11
2018-12-20T19:52:46.280Z,74.53
2018-12-20T19:55:15.825Z,73.60
2018-12-20T19:57:45.439Z,72.17
2018-12-20T20:00:16.696Z,71.22
2018-12-20T20:02:46.461Z,70.35
2018-12-20T20:05:15.691Z,70.70
2018-12-20T20:07:45.256Z,69.86
2018-12-20T20:10:15.144Z,70.55
2018-12-20T20:12:44.845Z,70.80
2018-12-20T20:15:16.758Z,70.81
2018-12-20T20:17:46.325Z,70.94
2018-12-20T20:20:16.041Z,70.58
2018-12-20T20:22:46.058Z,69.25
2018-12-20T20:25:16.102Z,69.23
2018-12-20T20:27:45.525Z,69.11
2018-12-20T20:30:16.612Z,68.90
2018-12-20T20:32:46.183Z,69.06
2018-12-20T20:35:15.899Z,69.49
2018-12-20T20:37:46.126Z,69.22
2018-12-20T20:40:15.831Z,70.09
2018-12-20T20:42:45.574Z,71.27
2018-12-20T20:45:15.302Z,71.06
2018-12-20T20:47:45.097Z,69.67
2018-12-20T20:50:22.000Z,69.00
2018-12-20T20:52:46.616Z,69.01
2018-12-20T20:55:16.416Z,69.58
2018-12-20T20:57:46.701Z,70.17
2018-12-20T21:00:16.314Z,69.73
2018-12-20T21:02:46.239Z,69.57
2018-12-20T21:05:16.021Z,70.19
2018-12-20T21:07:45.544Z,69.72
2018-12-20T21:10:14.804Z,69.59
2018-12-20T21:12:44.175Z,68.87
2018-12-20T21:15:13.860Z,68.75
2018-12-20T21:17:43.187Z,68.40
2018-12-20T21:20:13.823Z,68.54
2018-12-20T21:22:43.031Z,68.84
2018-12-20T21:25:12.417Z,68.73
2018-12-20T21:27:41.800Z,68.28
2018-12-20T21:30:11.826Z,68.59
2018-12-20T21:32:41.188Z,68.10
2018-12-20T21:35:10.657Z,68.33
2018-12-20T21:37:40.250Z,68.54
2018-12-20T21:40:09.871Z,68.77
2018-12-20T21:42:39.011Z,69.21
2018-12-20T21:45:09.859Z,68.80
2018-12-20T21:47:39.261Z,68.98
2018-12-20T21:50:10.584Z,68.45
2018-12-20T21:52:40.413Z,69.07
2018-12-20T21:55:10.413Z,69.24
2018-12-20T21:57:39.972Z,68.47
2018-12-20T22:00:10.754Z,68.26
2018-12-20T22:02:40.276Z,67.88
2018-12-20T22:05:09.700Z,67.92
2018-12-20T22:07:38.984Z,67.37
2018-12-20T22:10:09.031Z,67.42
2018-12-20T22:12:39.047Z,67.16
2018-12-20T22:15:10.600Z,67.54
2018-12-20T22:17:39.853Z,67.50
2018-12-20T22:20:09.099Z,68.28
2018-12-20T22:22:38.360Z,68.41
2018-12-20T22:25:08.269Z,69.26
2018-12-20T22:27:37.544Z,70.17
2018-12-20T22:30:08.732Z,71.20
2018-12-20T22:32:38.110Z,74.27
2018-12-20T22:35:07.271Z,74.60
2018-12-20T22:37:36.744Z,73.32
2018-12-20T22:40:06.796Z,72.90
2018-12-20T22:42:36.072Z,72.63
2018-12-20T22:45:06.253Z,74.04
2018-12-20T22:47:35.612Z,79.87
2018-12-20T22:50:05.092Z,82.44
2018-12-20T22:52:34.389Z,84.43
2018-12-20T22:55:03.887Z,84.10
2018-12-20T22:57:33.235Z,85.16
2018-12-20T23:00:02.486Z,83.62
2018-12-20T23:02:32.210Z,80.98
2018-12-20T23:05:01.484Z,80.30
2018-12-20T23:07:31.114Z,79.89
2018-12-20T23:10:00.576Z,79.76
2018-12-20T23:12:29.793Z,77.70
2018-12-20T23:14:59.524Z,75.79
2018-12-20T23:17:28.879Z,74.87
2018-12-20T23:19:58.237Z,73.89
2018-12-20T23:22:27.772Z,73.36
2018-12-20T23:24:57.552Z,72.80
2018-12-20T23:27:26.949Z,71.48
2018-12-20T23:29:56.592Z,71.62
2018-12-20T23:32:25.880Z,71.25
2018-12-20T23:34:55.203Z,70.99
2018-12-20T23:37:24.455Z,70.68
2018-12-20T23:39:53.837Z,69.99
2018-12-20T23:42:23.399Z,69.92
2018-12-20T23:44:52.729Z,70.93
2018-12-20T23:47:22.031Z,70.23
2018-12-20T23:49:51.571Z,69.90
2018-12-20T23:52:21.315Z,72.05
2018-12-20T23:54:50.792Z,71.71
2018-12-20T23:57:20.071Z,71.62
2018-12-20T23:59:49.520Z,70.56
